createdAt,value
2019-04-27T00:00:40.538Z,13.65
2019-04-27T00:02:24.841Z,13.63
2019-04-27T00:04:04.076Z,13.61
2019-04-27T00:05:40.340Z,13.53
2019-04-27T00:07:16.958Z,13.45
2019-04-27T00:08:59.101Z,13.38
2019-04-27T00:10:51.098Z,13.33
2019-04-27T00:12:26.559Z,13.29
2019-04-27T00:14:00.940Z,13.29
2019-04-27T00:15:36.809Z,13.29
2019-04-27T00:17:43.530Z,13.28
2019-04-27T00:19:13.063Z,13.21
2019-04-27T00:20:48.637Z,13.17
2019-04-27T00:22:39.766Z,13.18
2019-04-27T00:24:14.465Z,13.14
2019-04-27T00:25:48.744Z,13.09
2019-04-27T00:27:26.161Z,13.10
2019-04-27T00:29:00.384Z,13.09
2019-04-27T00:30:35.628Z,13.08
2019-04-27T00:32:10.036Z,13.06
2019-04-27T00:33:44.255Z,13.07
2019-04-27T00:35:20.113Z,13.09
2019-04-27T00:36:58.679Z,13.11
2019-04-27T00:38:53.470Z,13.10
2019-04-27T00:40:33.541Z,13.08
2019-04-27T00:42:08.408Z,13.04
2019-04-27T00:43:42.778Z,12.98
2019-04-27T00:45:18.601Z,12.91
2019-04-27T00:46:53.383Z,12.83
2019-04-27T00:48:27.844Z,12.79
2019-04-27T00:50:03.611Z,12.75
2019-04-27T00:51:37.972Z,12.74
2019-04-27T00:53:13.372Z,12.71
2019-04-27T00:54:47.865Z,12.70
2019-04-27T00:56:29.748Z,12.66
2019-04-27T00:58:13.045Z,12.65
2019-04-27T01:00:07.189Z,12.60
2019-04-27T01:01:55.000Z,12.51
2019-04-27T01:03:30.904Z,12.45
2019-04-27T01:05:08.157Z,12.42
2019-04-27T01:06:43.757Z,12.37
2019-04-27T01:08:18.885Z,12.35
2019-04-27T01:09:53.743Z,12.33
2019-04-27T01:11:27.968Z,12.30
2019-04-27T01:13:03.322Z,12.28
2019-04-27T01:14:37.892Z,12.25
2019-04-27T01:16:14.674Z,12.12
2019-04-27T01:17:49.027Z,12.24
2019-04-27T01:19:23.553Z,12.25
2019-04-27T01:20:59.094Z,12.25
2019-04-27T01:22:33.496Z,12.27
2019-04-27T01:24:08.973Z,12.25
2019-04-27T01:25:44.915Z,12.25
2019-04-27T01:27:35.842Z,12.26
2019-04-27T01:29:11.699Z,12.27
2019-04-27T01:30:49.000Z,12.26
2019-04-27T01:32:23.436Z,12.27
2019-04-27T01:33:59.007Z,12.27
2019-04-27T01:35:33.536Z,12.27
2019-04-27T01:37:09.309Z,12.27
2019-04-27T01:38:43.620Z,12.26
2019-04-27T01:40:19.335Z,12.25
2019-04-27T01:41:54.029Z,12.23
2019-04-27T01:43:28.471Z,12.21
2019-04-27T01:45:06.114Z,12.20
2019-04-27T01:46:40.365Z,12.20
2019-04-27T01:48:23.027Z,12.22
2019-04-27T01:49:50.580Z,12.22
2019-04-27T01:51:24.809Z,12.21
2019-04-27T01:52:59.105Z,12.21
2019-04-27T01:54:33.337Z,12.23
2019-04-27T01:56:09.200Z,12.23
2019-04-27T01:57:43.620Z,12.21
2019-04-27T01:59:19.768Z,12.16
2019-04-27T02:00:59.455Z,12.14
2019-04-27T02:02:35.566Z,12.14
2019-04-27T02:04:14.408Z,12.15
2019-04-27T02:05:50.272Z,12.14
2019-04-27T02:07:24.928Z,12.12
2019-04-27T02:08:59.593Z,12.11
2019-04-27T02:10:34.080Z,12.11
2019-04-27T02:12:09.424Z,12.07
2019-04-27T02:13:43.928Z,12.03
2019-04-27T02:15:19.172Z,11.98
2019-04-27T02:16:53.512Z,11.92
2019-04-27T02:18:35.624Z,11.87
2019-04-27T02:20:05.098Z,11.85
2019-04-27T02:21:39.384Z,11.84
2019-04-27T02:23:13.601Z,11.86
2019-04-27T02:24:49.260Z,11.84
2019-04-27T02:26:23.680Z,11.83
2019-04-27T02:27:59.545Z,11.83
2019-04-27T02:29:39.077Z,11.78
2019-04-27T02:31:26.973Z,11.76
2019-04-27T02:33:20.264Z,11.69
2019-04-27T02:35:02.398Z,11.64
2019-04-27T02:36:38.866Z,11.60
2019-04-27T02:38:12.499Z,11.58
2019-04-27T02:39:46.845Z,11.58
2019-04-27T02:41:21.061Z,11.59
2019-04-27T02:42:55.877Z,11.57
2019-04-27T02:44:34.433Z,11.54
2019-04-27T02:46:09.550Z,11.49
2019-04-27T02:47:44.065Z,11.42
2019-04-27T02:49:20.129Z,11.41
2019-04-27T02:50:55.933Z,11.40
2019-04-27T02:52:31.804Z,11.39
2019-04-27T02:54:06.038Z,11.39
2019-04-27T02:55:40.807Z,11.38
2019-04-27T02:57:15.034Z,11.41
2019-04-27T02:58:49.899Z,11.46
2019-04-27T03:00:24.235Z,11.47
2019-04-27T03:02:00.712Z,11.48
2019-04-27T03:03:35.208Z,11.48
2019-04-27T03:05:12.722Z,11.44
2019-04-27T03:06:45.521Z,11.38
2019-04-27T03:08:20.177Z,11.31
2019-04-27T03:09:54.608Z,11.28
2019-04-27T03:11:30.671Z,11.24
2019-04-27T03:13:12.412Z,11.20
2019-04-27T03:14:50.600Z,11.18
2019-04-27T03:16:32.359Z,11.16
2019-04-27T03:18:09.874Z,11.15
2019-04-27T03:20:00.832Z,11.12
2019-04-27T03:21:42.658Z,11.10
2019-04-27T03:23:17.041Z,11.07
2019-04-27T03:25:09.897Z,11.04
2019-04-27T03:26:50.110Z,11.05
2019-04-27T03:28:23.788Z,11.06
2019-04-27T03:29:59.715Z,11.08
2019-04-27T03:31:34.061Z,11.10
2019-04-27T03:33:11.938Z,11.11
2019-04-27T03:34:44.249Z,11.14
2019-04-27T03:36:21.553Z,11.17
2019-04-27T03:37:54.518Z,11.19
2019-04-27T03:39:29.967Z,11.19
2019-04-27T03:41:04.753Z,11.19
2019-04-27T03:42:40.710Z,11.20
2019-04-27T03:44:15.141Z,11.19
2019-04-27T03:45:51.761Z,11.20
2019-04-27T03:47:25.279Z,11.21
2019-04-27T03:49:00.136Z,11.22
2019-04-27T03:50:39.892Z,11.23
2019-04-27T03:52:29.930Z,11.22
2019-04-27T03:54:19.387Z,11.21
2019-04-27T03:56:05.123Z,11.22
2019-04-27T03:57:47.013Z,11.26
2019-04-27T03:59:22.885Z,11.29
2019-04-27T04:00:59.884Z,11.37
2019-04-27T04:02:33.163Z,11.44
2019-04-27T04:04:10.091Z,11.51
2019-04-27T04:05:43.221Z,11.57
2019-04-27T04:07:19.468Z,11.64
2019-04-27T04:08:55.229Z,11.71
2019-04-27T04:10:31.158Z,11.76
2019-04-27T04:12:09.443Z,11.78
2019-04-27T04:13:44.500Z,11.83
2019-04-27T04:15:36.508Z,11.89
2019-04-27T04:17:12.739Z,11.93
2019-04-27T04:19:00.381Z,12.01
2019-04-27T04:20:33.817Z,12.10
2019-04-27T04:22:10.237Z,12.13
2019-04-27T04:23:43.921Z,12.16
2019-04-27T04:25:20.014Z,12.19
2019-04-27T04:26:54.010Z,12.27
2019-04-27T04:28:29.626Z,12.32
2019-04-27T04:30:09.800Z,12.39
2019-04-27T04:31:44.603Z,12.47
2019-04-27T04:33:20.603Z,12.57
2019-04-27T04:34:57.620Z,12.69
2019-04-27T04:36:31.854Z,12.82
2019-04-27T04:38:06.128Z,12.93
2019-04-27T04:39:40.726Z,13.04
2019-04-27T04:41:20.081Z,13.13
2019-04-27T04:42:56.245Z,13.26
2019-04-27T04:44:36.432Z,13.36
2019-04-27T04:46:29.808Z,13.49
2019-04-27T04:48:05.984Z,13.57
2019-04-27T04:49:40.209Z,13.66
2019-04-27T04:51:14.441Z,13.75
2019-04-27T04:52:49.922Z,13.90
2019-04-27T04:54:24.875Z,14.07
2019-04-27T04:56:00.404Z,14.18
2019-04-27T04:57:34.858Z,14.21
2019-04-27T04:59:10.062Z,14.27
2019-04-27T05:00:44.456Z,14.51
2019-04-27T05:02:19.160Z,14.89
2019-04-27T05:03:53.443Z,15.36
2019-04-27T05:05:29.132Z,15.79
2019-04-27T05:07:03.749Z,16.18
2019-04-27T05:08:39.340Z,16.49
2019-04-27T05:10:13.682Z,16.76
2019-04-27T05:11:48.683Z,17.09
2019-04-27T05:13:23.033Z,17.49
2019-04-27T05:14:58.944Z,17.80
2019-04-27T05:16:33.268Z,18.04
2019-04-27T05:18:09.131Z,18.36
2019-04-27T05:19:44.260Z,18.76
2019-04-27T05:21:20.124Z,19.16
2019-04-27T05:22:54.434Z,19.27
2019-04-27T05:24:29.255Z,19.54
2019-04-27T05:26:03.695Z,19.79
2019-04-27T05:27:38.953Z,19.97
2019-04-27T05:29:13.840Z,19.83
2019-04-27T05:30:48.934Z,19.83
2019-04-27T05:32:23.396Z,19.98
2019-04-27T05:34:00.464Z,20.11
2019-04-27T05:35:34.738Z,20.27
2019-04-27T05:37:09.093Z,20.40
2019-04-27T05:38:45.923Z,20.57
2019-04-27T05:40:19.229Z,20.81
2019-04-27T05:41:53.460Z,21.14
2019-04-27T05:43:30.156Z,21.30
2019-04-27T05:45:22.773Z,21.27
2019-04-27T05:47:13.290Z,21.54
2019-04-27T05:48:48.857Z,21.56
2019-04-27T05:50:35.273Z,21.91
2019-04-27T05:51:59.527Z,22.28
2019-04-27T05:53:33.949Z,22.61
2019-04-27T05:55:08.702Z,22.96
2019-04-27T05:56:44.504Z,23.38
2019-04-27T05:58:19.586Z,23.66
2019-04-27T05:59:54.196Z,23.92
2019-04-27T06:01:29.664Z,23.99
2019-04-27T06:03:04.160Z,24.05
2019-04-27T06:04:39.040Z,24.41
2019-04-27T06:06:14.268Z,24.77
2019-04-27T06:07:48.872Z,24.77
2019-04-27T06:09:23.264Z,24.81
2019-04-27T06:10:59.073Z,24.87
2019-04-27T06:12:33.379Z,25.21
2019-04-27T06:14:09.512Z,25.49
2019-04-27T06:15:43.530Z,25.73
2019-04-27T06:17:19.438Z,25.98
2019-04-27T06:18:53.940Z,25.92
2019-04-27T06:20:29.373Z,25.83
2019-04-27T06:22:03.602Z,25.74
2019-04-27T06:23:39.086Z,25.91
2019-04-27T06:25:13.752Z,26.03
2019-04-27T06:26:49.654Z,25.74
2019-04-27T06:28:23.905Z,25.36
2019-04-27T06:29:59.598Z,25.49
2019-04-27T06:31:33.824Z,25.30
2019-04-27T06:33:09.364Z,25.20
2019-04-27T06:34:44.427Z,25.41
2019-04-27T06:36:19.876Z,25.64
2019-04-27T06:37:54.465Z,25.89
2019-04-27T06:39:29.761Z,26.32
2019-04-27T06:41:04.287Z,26.86
2019-04-27T06:42:40.159Z,27.22
2019-04-27T06:44:14.393Z,27.46
2019-04-27T06:45:48.905Z,27.62
2019-04-27T06:47:23.184Z,27.63
2019-04-27T06:48:59.144Z,28.19
2019-04-27T06:50:33.400Z,28.17
2019-04-27T06:52:08.662Z,28.38
2019-04-27T06:53:43.018Z,28.52
2019-04-27T06:55:18.760Z,28.49
2019-04-27T06:56:53.180Z,28.64
2019-04-27T06:58:29.120Z,29.14
2019-04-27T07:00:03.687Z,29.46
2019-04-27T07:01:39.035Z,29.55
2019-04-27T07:03:13.443Z,29.43
2019-04-27T07:04:49.025Z,29.34
2019-04-27T07:06:23.616Z,29.17
2019-04-27T07:07:59.115Z,29.42
2019-04-27T07:09:33.453Z,29.96
2019-04-27T07:11:11.028Z,30.52
2019-04-27T07:12:43.597Z,31.03
2019-04-27T07:14:19.528Z,31.17
2019-04-27T07:15:55.336Z,31.11
2019-04-27T07:17:29.571Z,31.07
2019-04-27T07:19:04.453Z,31.02
2019-04-27T07:20:38.907Z,31.01
2019-04-27T07:22:13.241Z,31.01
2019-04-27T07:23:59.681Z,31.44
2019-04-27T07:25:34.096Z,31.79
2019-04-27T07:27:09.364Z,31.97
2019-04-27T07:28:43.657Z,32.24
2019-04-27T07:30:19.014Z,32.51
2019-04-27T07:31:53.457Z,32.56
2019-04-27T07:33:29.524Z,32.22
2019-04-27T07:35:03.996Z,31.64
2019-04-27T07:36:39.369Z,30.95
2019-04-27T07:38:13.817Z,30.69
2019-04-27T07:39:49.188Z,30.78
2019-04-27T07:41:23.595Z,30.61
2019-04-27T07:43:02.180Z,30.77
2019-04-27T07:44:39.068Z,30.85
2019-04-27T07:46:14.106Z,31.22
2019-04-27T07:47:49.964Z,31.11
2019-04-27T07:49:24.185Z,31.32
2019-04-27T07:50:59.075Z,30.98
2019-04-27T07:52:33.652Z,30.66
2019-04-27T07:54:08.982Z,30.40
2019-04-27T07:55:43.287Z,29.87
2019-04-27T07:57:19.433Z,29.52
2019-04-27T07:58:53.412Z,29.44
2019-04-27T08:00:28.957Z,29.20
2019-04-27T08:02:03.628Z,28.97
2019-04-27T08:03:39.013Z,28.97
2019-04-27T08:05:13.564Z,29.27
2019-04-27T08:06:49.532Z,29.60
2019-04-27T08:08:23.649Z,29.83
2019-04-27T08:10:01.132Z,29.79
2019-04-27T08:11:33.782Z,29.88
2019-04-27T08:13:09.580Z,30.08
2019-04-27T08:14:43.925Z,30.60
2019-04-27T08:16:18.303Z,31.05
2019-04-27T08:17:59.197Z,31.66
2019-04-27T08:19:33.805Z,31.33
2019-04-27T08:21:08.962Z,32.09
2019-04-27T08:22:43.205Z,32.83
2019-04-27T08:24:20.037Z,33.58
2019-04-27T08:25:54.329Z,34.34
2019-04-27T08:27:36.217Z,34.32
2019-04-27T08:29:32.825Z,34.29
2019-04-27T08:31:18.738Z,33.85
2019-04-27T08:32:55.010Z,32.83
2019-04-27T08:34:36.848Z,32.10
2019-04-27T08:36:11.180Z,31.68
2019-04-27T08:37:45.389Z,31.45
2019-04-27T08:39:20.230Z,31.16
2019-04-27T08:40:54.453Z,30.89
2019-04-27T08:42:29.409Z,30.72
2019-04-27T08:44:03.849Z,30.61
2019-04-27T08:45:39.162Z,30.68
2019-04-27T08:47:14.717Z,30.87
2019-04-27T08:48:49.118Z,31.04
2019-04-27T08:50:23.610Z,31.24
2019-04-27T08:52:01.340Z,31.74
2019-04-27T08:53:33.740Z,32.47
2019-04-27T08:55:09.539Z,33.25
2019-04-27T08:56:44.112Z,33.61
2019-04-27T08:58:19.651Z,34.17
2019-04-27T08:59:54.220Z,34.41
2019-04-27T09:01:29.945Z,34.47
2019-04-27T09:03:04.407Z,34.55
2019-04-27T09:04:39.507Z,34.84
2019-04-27T09:06:13.955Z,35.19
2019-04-27T09:08:06.035Z,35.13
2019-04-27T09:09:41.883Z,35.29
2019-04-27T09:11:20.719Z,35.59
2019-04-27T09:13:14.860Z,35.76
2019-04-27T09:15:02.949Z,35.99
2019-04-27T09:16:38.986Z,36.10
2019-04-27T09:18:14.861Z,35.98
2019-04-27T09:19:51.265Z,35.88
2019-04-27T09:21:25.553Z,36.14
2019-04-27T09:22:59.779Z,36.59
2019-04-27T09:24:33.992Z,36.98
2019-04-27T09:26:10.925Z,37.43
2019-04-27T09:27:44.614Z,37.55
2019-04-27T09:29:19.789Z,37.48
2019-04-27T09:30:54.917Z,37.48
2019-04-27T09:32:29.213Z,37.87
2019-04-27T09:34:03.438Z,37.60
2019-04-27T09:35:37.696Z,37.45
2019-04-27T09:37:11.922Z,37.31
2019-04-27T09:38:46.504Z,36.69
2019-04-27T09:40:20.907Z,36.64
2019-04-27T09:41:57.157Z,37.18
2019-04-27T09:43:31.705Z,37.84
2019-04-27T09:45:07.376Z,38.20
2019-04-27T09:46:41.596Z,38.38
2019-04-27T09:48:17.606Z,38.57
2019-04-27T09:49:52.030Z,38.53
2019-04-27T09:51:26.244Z,38.38
2019-04-27T09:53:00.452Z,38.13
2019-04-27T09:54:36.209Z,38.32
2019-04-27T09:56:10.576Z,38.39
2019-04-27T09:57:46.529Z,38.35
2019-04-27T09:59:20.881Z,37.53
2019-04-27T10:00:56.675Z,36.55
2019-04-27T10:02:31.593Z,36.21
2019-04-27T10:04:05.803Z,35.81
2019-04-27T10:05:40.004Z,36.12
2019-04-27T10:07:14.222Z,36.24
2019-04-27T10:08:48.483Z,36.45
2019-04-27T10:10:22.764Z,36.38
2019-04-27T10:11:56.994Z,36.21
2019-04-27T10:13:31.216Z,36.31
2019-04-27T10:15:06.857Z,36.79
2019-04-27T10:16:41.072Z,36.89
2019-04-27T10:18:16.337Z,36.68
2019-04-27T10:19:50.908Z,36.22
2019-04-27T10:21:26.429Z,35.62
2019-04-27T10:23:00.808Z,35.21
2019-04-27T10:24:35.832Z,34.76
2019-04-27T10:26:10.098Z,34.84
2019-04-27T10:27:45.953Z,34.85
2019-04-27T10:29:20.215Z,34.90
2019-04-27T10:30:55.736Z,35.04
2019-04-27T10:32:30.057Z,34.93
2019-04-27T10:34:05.873Z,34.63
2019-04-27T10:35:40.274Z,34.19
2019-04-27T10:37:16.103Z,33.85
2019-04-27T10:38:50.368Z,33.66
2019-04-27T10:40:26.247Z,33.67
2019-04-27T10:42:00.452Z,33.61
2019-04-27T10:43:34.712Z,33.50
2019-04-27T10:45:10.771Z,33.37
2019-04-27T10:46:44.984Z,32.86
2019-04-27T10:48:19.846Z,32.60
2019-04-27T10:49:54.132Z,32.50
2019-04-27T10:51:28.360Z,32.49
2019-04-27T10:53:02.665Z,32.45
2019-04-27T10:54:36.912Z,32.29
2019-04-27T10:56:11.196Z,32.29
2019-04-27T10:57:45.486Z,32.26
2019-04-27T10:59:20.703Z,32.17
2019-04-27T11:00:59.740Z,32.02
2019-04-27T11:02:33.993Z,32.01
2019-04-27T11:04:18.837Z,31.93
2019-04-27T11:05:54.696Z,31.82
2019-04-27T11:07:30.598Z,31.78
2019-04-27T11:09:07.480Z,31.86
2019-04-27T11:10:41.691Z,31.94
2019-04-27T11:12:15.967Z,32.08
2019-04-27T11:13:50.164Z,32.26
2019-04-27T11:15:26.410Z,32.30
2019-04-27T11:17:00.678Z,32.29
2019-04-27T11:18:36.055Z,32.33
2019-04-27T11:20:11.044Z,32.15
2019-04-27T11:21:45.612Z,32.03
2019-04-27T11:23:19.829Z,31.95
2019-04-27T11:24:56.029Z,32.07
2019-04-27T11:26:30.002Z,32.27
2019-04-27T11:28:05.702Z,32.15
2019-04-27T11:29:40.278Z,31.83
2019-04-27T11:31:16.985Z,31.60
2019-04-27T11:32:54.602Z,31.56
2019-04-27T11:34:32.924Z,31.58
2019-04-27T11:36:20.878Z,31.77
2019-04-27T11:37:56.725Z,31.81
2019-04-27T11:39:30.936Z,32.06
2019-04-27T11:41:05.152Z,32.14
2019-04-27T11:42:39.416Z,32.03
2019-04-27T11:44:15.273Z,32.12
2019-04-27T11:45:50.764Z,32.13
2019-04-27T11:47:24.988Z,32.07
2019-04-27T11:48:59.700Z,32.02
2019-04-27T11:50:35.645Z,32.04
2019-04-27T11:52:09.773Z,31.97
2019-04-27T11:53:43.980Z,32.07
2019-04-27T11:55:19.032Z,31.92
2019-04-27T11:56:53.275Z,31.99
2019-04-27T11:58:27.480Z,32.18
2019-04-27T12:00:02.117Z,32.28
2019-04-27T12:01:37.228Z,32.22
2019-04-27T12:03:11.524Z,32.35
2019-04-27T12:04:46.657Z,32.33
2019-04-27T12:06:21.063Z,32.38
2019-04-27T12:07:56.059Z,32.14
2019-04-27T12:09:30.566Z,32.01
2019-04-27T12:11:05.893Z,31.97
2019-04-27T12:12:40.490Z,31.96
2019-04-27T12:14:14.709Z,31.99
2019-04-27T12:15:48.918Z,32.01
2019-04-27T12:17:23.136Z,31.99
2019-04-27T12:18:59.061Z,31.85
2019-04-27T12:20:33.275Z,31.60
2019-04-27T12:22:07.480Z,31.43
2019-04-27T12:23:41.689Z,31.32
2019-04-27T12:25:16.347Z,31.38
2019-04-27T12:26:55.808Z,31.45
2019-04-27T12:28:41.827Z,31.36
2019-04-27T12:30:21.135Z,31.27
2019-04-27T12:46:08.256Z,30.34
2019-04-27T12:47:43.144Z,30.07
2019-04-27T12:49:17.698Z,30.22
2019-04-27T12:50:51.913Z,30.39
2019-04-27T12:52:26.233Z,30.49
2019-04-27T12:54:05.976Z,30.58
2019-04-27T12:55:42.120Z,30.62
2019-04-27T12:57:20.907Z,30.61
2019-04-27T12:58:59.824Z,30.62
2019-04-27T13:00:41.426Z,30.66
2019-04-27T13:02:15.629Z,30.50
2019-04-27T13:03:50.493Z,30.32
2019-04-27T13:05:25.814Z,30.34
2019-04-27T13:07:00.368Z,30.42
2019-04-27T13:08:35.739Z,30.42
2019-04-27T13:10:10.569Z,30.46
2019-04-27T13:11:45.927Z,30.59
2019-04-27T13:13:20.678Z,30.53
2019-04-27T13:14:55.164Z,30.66
2019-04-27T13:16:30.544Z,30.78
2019-04-27T13:18:05.573Z,30.84
2019-04-27T13:19:40.137Z,30.96
2019-04-27T13:21:15.688Z,30.96
2019-04-27T13:22:50.314Z,31.13
2019-04-27T13:24:26.106Z,31.20
2019-04-27T13:26:00.421Z,31.24
2019-04-27T13:27:34.629Z,31.25
2019-04-27T13:29:08.855Z,31.20
2019-04-27T13:30:43.114Z,31.24
2019-04-27T13:32:17.333Z,31.18
2019-04-27T13:33:51.549Z,31.11
2019-04-27T13:35:25.935Z,31.05
2019-04-27T13:37:01.965Z,31.01
2019-04-27T13:38:36.587Z,30.87
2019-04-27T13:40:17.045Z,30.72
2019-04-27T13:41:51.538Z,30.36
2019-04-27T13:43:33.314Z,30.20
2019-04-27T13:45:09.172Z,30.03
2019-04-27T13:46:57.271Z,29.86
2019-04-27T13:48:51.321Z,29.84
2019-04-27T13:50:27.107Z,29.72
2019-04-27T13:52:02.980Z,29.70
2019-04-27T13:53:37.225Z,29.74
2019-04-27T13:55:11.735Z,29.74
2019-04-27T13:56:47.636Z,29.68
2019-04-27T13:58:21.880Z,29.73
2019-04-27T13:59:56.220Z,29.76
2019-04-27T14:01:30.515Z,29.80
2019-04-27T14:03:05.341Z,29.83
2019-04-27T14:04:39.596Z,29.91
2019-04-27T14:06:13.917Z,30.00
2019-04-27T14:07:49.435Z,29.87
2019-04-27T14:09:24.007Z,29.89
2019-04-27T14:10:58.841Z,29.93
2019-04-27T14:12:34.140Z,30.00
2019-04-27T14:14:08.402Z,30.09
2019-04-27T14:15:42.628Z,29.98
2019-04-27T14:17:19.301Z,29.86
2019-04-27T14:18:53.762Z,29.74
2019-04-27T14:20:28.726Z,29.69
2019-04-27T14:22:03.010Z,29.56
2019-04-27T14:23:38.553Z,29.49
2019-04-27T14:25:13.391Z,29.46
2019-04-27T14:26:48.578Z,29.38
2019-04-27T14:28:23.031Z,29.45
2019-04-27T14:29:59.567Z,29.37
2019-04-27T14:31:34.100Z,29.29
2019-04-27T14:33:08.531Z,29.21
2019-04-27T14:34:43.014Z,29.15
2019-04-27T14:36:18.243Z,28.97
2019-04-27T14:37:52.556Z,28.90
2019-04-27T14:39:28.526Z,28.85
2019-04-27T14:41:02.753Z,28.71
2019-04-27T14:42:36.954Z,28.53
2019-04-27T14:44:11.177Z,28.38
2019-04-27T14:45:48.484Z,28.30
2019-04-27T14:47:22.840Z,28.16
2019-04-27T14:48:57.048Z,28.05
2019-04-27T14:50:31.628Z,28.01
2019-04-27T14:52:06.248Z,27.95
2019-04-27T14:53:40.533Z,27.78
2019-04-27T14:55:14.752Z,27.57
2019-04-27T14:56:49.021Z,27.39
2019-04-27T14:58:23.233Z,27.24
2019-04-27T14:59:58.374Z,27.10
2019-04-27T15:01:33.381Z,26.94
2019-04-27T15:03:07.712Z,26.90
2019-04-27T15:04:42.414Z,26.78
2019-04-27T15:06:16.952Z,26.62
2019-04-27T15:07:51.776Z,26.53
2019-04-27T15:09:26.136Z,26.44
2019-04-27T15:11:00.353Z,26.41
2019-04-27T15:12:34.580Z,26.37
2019-04-27T15:14:09.192Z,26.34
2019-04-27T15:15:43.774Z,26.28
2019-04-27T15:17:23.283Z,26.23
2019-04-27T15:18:55.508Z,26.21
2019-04-27T15:20:41.638Z,26.17
2019-04-27T15:22:19.619Z,26.09
2019-04-27T15:23:53.416Z,25.75
2019-04-27T15:25:27.637Z,24.75
2019-04-27T15:27:02.291Z,23.97
2019-04-27T15:28:38.356Z,23.48
2019-04-27T15:30:17.988Z,23.08
2019-04-27T15:31:55.858Z,22.38
2019-04-27T15:33:51.432Z,21.85
2019-04-27T15:35:35.543Z,21.26
2019-04-27T15:37:12.181Z,20.78
2019-04-27T15:38:51.355Z,20.26
2019-04-27T15:40:28.940Z,19.79
2019-04-27T15:42:08.020Z,19.32
2019-04-27T15:43:42.464Z,18.84
2019-04-27T15:45:22.859Z,18.55
2019-04-27T15:46:52.692Z,18.27
2019-04-27T15:48:30.489Z,18.03
2019-04-27T15:50:02.881Z,17.86
2019-04-27T15:51:39.001Z,17.69
2019-04-27T15:53:13.216Z,17.57
2019-04-27T15:54:48.137Z,17.47
2019-04-27T15:56:22.548Z,17.40
2019-04-27T15:57:56.870Z,17.35
2019-04-27T15:59:37.729Z,17.34
2019-04-27T16:01:09.878Z,17.34
2019-04-27T16:02:44.544Z,17.36
2019-04-27T16:04:19.307Z,17.37
2019-04-27T16:05:53.535Z,17.38
2019-04-27T16:07:30.385Z,17.36
2019-04-27T16:09:07.695Z,17.37
2019-04-27T16:10:42.180Z,17.42
2019-04-27T16:12:18.028Z,17.45
2019-04-27T16:13:52.316Z,17.47
2019-04-27T16:15:27.913Z,17.47
2019-04-27T16:17:03.031Z,17.46
2019-04-27T16:18:38.821Z,17.44
2019-04-27T16:20:22.501Z,17.44
2019-04-27T16:21:54.094Z,17.39
2019-04-27T16:23:28.215Z,17.41
2019-04-27T16:25:03.875Z,17.46
2019-04-27T16:26:39.062Z,17.52
2019-04-27T16:28:14.372Z,17.57
2019-04-27T16:29:49.214Z,17.61
2019-04-27T16:31:24.809Z,17.65
2019-04-27T16:32:59.498Z,17.70
2019-04-27T16:34:37.846Z,17.73
2019-04-27T16:36:09.762Z,17.73
2019-04-27T16:37:52.101Z,17.75
2019-04-27T16:39:24.756Z,17.76
2019-04-27T16:41:03.203Z,17.78
2019-04-27T16:42:35.424Z,17.81
2019-04-27T16:44:10.895Z,17.84
2019-04-27T16:45:45.667Z,17.86
2019-04-27T16:47:24.318Z,17.88
2019-04-27T16:48:55.817Z,17.92
2019-04-27T16:50:30.044Z,17.92
2019-04-27T16:52:04.429Z,17.92
2019-04-27T16:53:41.121Z,17.90
2019-04-27T16:55:17.363Z,17.94
2019-04-27T16:56:56.648Z,17.93
2019-04-27T16:58:26.365Z,17.90
2019-04-27T17:00:01.138Z,17.79
2019-04-27T17:01:40.043Z,17.64
2019-04-27T17:03:11.696Z,17.49
2019-04-27T17:04:52.810Z,17.43
2019-04-27T17:06:21.856Z,17.41
2019-04-27T17:07:56.093Z,17.36
2019-04-27T17:09:30.360Z,17.28
2019-04-27T17:11:11.402Z,17.17
2019-04-27T17:12:45.633Z,17.05
2019-04-27T17:14:20.569Z,16.99
2019-04-27T17:16:08.627Z,16.97
2019-04-27T17:17:50.860Z,16.90
2019-04-27T17:19:25.244Z,16.79
2019-04-27T17:21:05.548Z,16.76
2019-04-27T17:22:38.460Z,16.73
2019-04-27T17:24:14.700Z,16.64
2019-04-27T17:25:52.975Z,16.58
2019-04-27T17:27:31.217Z,16.58
2019-04-27T17:29:15.976Z,16.61
2019-04-27T17:30:46.112Z,16.64
2019-04-27T17:32:30.296Z,16.65
2019-04-27T17:34:03.691Z,16.64
2019-04-27T17:35:41.759Z,16.61
2019-04-27T17:37:13.916Z,16.64
2019-04-27T17:38:50.996Z,16.67
2019-04-27T17:40:24.145Z,16.70
2019-04-27T17:41:58.781Z,16.74
2019-04-27T17:43:33.265Z,16.74
2019-04-27T17:45:09.006Z,16.74
2019-04-27T17:46:49.427Z,16.72
2019-04-27T17:48:19.309Z,16.70
2019-04-27T17:49:53.516Z,16.71
2019-04-27T17:51:28.534Z,16.71
2019-04-27T17:53:04.904Z,16.72
2019-04-27T17:54:40.837Z,16.73
2019-04-27T17:56:15.073Z,16.74
2019-04-27T17:57:49.992Z,16.71
2019-04-27T17:59:24.344Z,16.72
2019-04-27T18:00:59.910Z,16.74
2019-04-27T18:02:38.983Z,16.74
2019-04-27T18:04:10.695Z,16.73
2019-04-27T18:05:50.563Z,16.71
2019-04-27T18:07:21.148Z,16.69
2019-04-27T18:09:00.868Z,16.61
2019-04-27T18:10:31.270Z,16.56
2019-04-27T18:12:08.099Z,16.53
2019-04-27T18:13:42.150Z,16.45
2019-04-27T18:15:16.642Z,16.46
2019-04-27T18:16:52.495Z,16.47
2019-04-27T18:18:38.011Z,16.47
2019-04-27T18:20:18.383Z,16.44
2019-04-27T18:22:00.904Z,16.43
2019-04-27T18:23:36.963Z,16.39
2019-04-27T18:25:11.440Z,16.37
2019-04-27T18:26:51.615Z,16.29
2019-04-27T18:28:24.874Z,16.19
2019-04-27T18:30:03.335Z,16.12
2019-04-27T18:31:38.285Z,16.04
2019-04-27T18:33:14.254Z,15.98
2019-04-27T18:34:49.466Z,15.90
2019-04-27T18:36:24.364Z,15.79
2019-04-27T18:38:01.709Z,15.72
2019-04-27T18:39:34.416Z,15.69
2019-04-27T18:41:11.642Z,15.68
2019-04-27T18:42:44.625Z,15.70
2019-04-27T18:44:19.238Z,15.70
2019-04-27T18:45:53.742Z,15.72
2019-04-27T18:47:31.292Z,15.73
2019-04-27T18:49:05.523Z,15.74
2019-04-27T18:50:43.621Z,15.73
2019-04-27T18:52:35.557Z,15.72
2019-04-27T18:54:11.465Z,15.73
2019-04-27T18:55:45.734Z,15.74
2019-04-27T18:57:20.008Z,15.76
2019-04-27T18:58:54.225Z,15.75
2019-04-27T19:00:29.510Z,15.72
2019-04-27T19:02:04.072Z,15.72
2019-04-27T19:03:39.142Z,15.73
2019-04-27T19:05:13.414Z,15.77
2019-04-27T19:06:47.633Z,15.82
2019-04-27T19:08:21.957Z,15.85
2019-04-27T19:09:56.164Z,15.88
2019-04-27T19:11:32.428Z,15.88
2019-04-27T19:13:08.557Z,15.89
2019-04-27T19:14:42.541Z,15.90
2019-04-27T19:16:18.720Z,15.59
2019-04-27T19:17:53.174Z,15.89
2019-04-27T19:19:28.014Z,15.87
2019-04-27T19:21:02.492Z,15.85
2019-04-27T19:22:38.466Z,15.84
2019-04-27T19:24:12.601Z,15.81
2019-04-27T19:25:48.449Z,15.80
2019-04-27T19:27:42.597Z,15.79
2019-04-27T19:29:18.935Z,15.80
2019-04-27T19:31:10.101Z,15.80
2019-04-27T19:32:44.380Z,15.83
2019-04-27T19:34:18.643Z,15.82
2019-04-27T19:35:52.860Z,15.82
2019-04-27T19:37:28.626Z,15.83
2019-04-27T19:39:04.956Z,15.80
2019-04-27T19:40:39.200Z,15.77
2019-04-27T19:42:13.412Z,15.76
2019-04-27T19:43:48.809Z,15.72
2019-04-27T19:45:23.137Z,15.73
2019-04-27T19:46:59.958Z,15.74
2019-04-27T19:48:33.845Z,15.72
2019-04-27T19:50:10.161Z,15.68
2019-04-27T19:51:44.024Z,15.65
2019-04-27T19:53:19.420Z,15.67
2019-04-27T19:54:54.157Z,15.70
2019-04-27T19:56:28.512Z,15.71
2019-04-27T19:58:03.180Z,15.70
2019-04-27T19:59:39.083Z,15.70
2019-04-27T20:01:15.525Z,15.69
2019-04-27T20:02:50.337Z,15.67
2019-04-27T20:04:26.176Z,15.67
2019-04-27T20:06:00.468Z,15.34
2019-04-27T20:07:34.851Z,15.65
2019-04-27T20:09:23.009Z,15.63
2019-04-27T20:10:57.356Z,15.64
2019-04-27T20:12:33.213Z,15.67
2019-04-27T20:14:07.429Z,15.68
2019-04-27T20:15:42.971Z,15.70
2019-04-27T20:17:17.369Z,15.68
2019-04-27T20:18:51.710Z,15.66
2019-04-27T20:20:26.185Z,15.66
2019-04-27T20:22:00.850Z,15.65
2019-04-27T20:23:35.148Z,15.64
2019-04-27T20:25:11.094Z,15.65
2019-04-27T20:26:45.216Z,15.65
2019-04-27T20:28:20.631Z,15.62
2019-04-27T20:29:55.407Z,15.59
2019-04-27T20:31:30.655Z,15.56
2019-04-27T20:33:05.477Z,15.53
2019-04-27T20:34:41.226Z,15.55
2019-04-27T20:36:15.600Z,15.55
2019-04-27T20:37:51.706Z,15.53
2019-04-27T20:39:25.704Z,15.55
2019-04-27T20:41:01.374Z,15.55
2019-04-27T20:42:35.829Z,15.56
2019-04-27T20:44:12.299Z,15.56
2019-04-27T20:45:46.299Z,15.56
2019-04-27T20:47:20.573Z,15.56
2019-04-27T20:48:55.350Z,15.55
2019-04-27T20:50:30.887Z,15.54
2019-04-27T20:52:13.097Z,15.53